createdAt,value
2019-02-24T00:01:40.679Z,58.38
2019-02-24T00:04:10.160Z,58.57
2019-02-24T00:06:39.665Z,58.48
2019-02-24T00:09:09.170Z,58.18
2019-02-24T00:11:38.635Z,58.12
2019-02-24T00:14:08.177Z,58.16
2019-02-24T00:16:37.652Z,57.76
2019-02-24T00:19:07.166Z,57.46
2019-02-24T00:21:36.690Z,57.97
2019-02-24T00:24:06.173Z,58.07
2019-02-24T00:26:35.635Z,58.14
2019-02-24T00:29:05.105Z,58.15
2019-02-24T00:31:34.569Z,58.28
2019-02-24T00:34:04.052Z,58.25
2019-02-24T00:36:33.557Z,58.03
2019-02-24T00:39:03.562Z,57.92
2019-02-24T00:41:33.073Z,58.17
2019-02-24T00:44:02.579Z,58.27
2019-02-24T00:46:32.093Z,58.29
2019-02-24T00:49:01.632Z,58.65
2019-02-24T00:51:31.135Z,58.60
2019-02-24T00:54:00.707Z,58.58
2019-02-24T00:56:30.236Z,58.47
2019-02-24T00:58:59.742Z,59.18
2019-02-24T01:01:29.304Z,58.97
2019-02-24T01:03:58.771Z,59.06
2019-02-24T01:06:28.262Z,58.90
2019-02-24T01:08:57.771Z,59.01
2019-02-24T01:11:27.282Z,59.08
2019-02-24T01:13:56.774Z,59.38
2019-02-24T01:16:26.299Z,59.82
2019-02-24T01:18:55.825Z,59.69
2019-02-24T01:21:25.305Z,59.68
2019-02-24T01:23:54.804Z,59.97
2019-02-24T01:26:24.281Z,60.32
2019-02-24T01:28:53.764Z,60.50
2019-02-24T01:31:23.217Z,60.52
2019-02-24T01:33:52.704Z,60.50
2019-02-24T01:36:22.200Z,60.29
2019-02-24T01:38:51.698Z,60.32
2019-02-24T01:41:21.233Z,60.40
2019-02-24T01:43:50.741Z,60.30
2019-02-24T01:46:20.229Z,60.14
2019-02-24T01:48:49.724Z,60.06
2019-02-24T01:51:19.242Z,60.22
2019-02-24T01:53:48.834Z,60.32
2019-02-24T01:56:18.386Z,60.14
2019-02-24T01:58:48.175Z,60.05
2019-02-24T02:01:17.648Z,60.11
2019-02-24T02:03:47.210Z,60.33
2019-02-24T02:06:16.786Z,60.31
2019-02-24T02:08:46.368Z,60.24
2019-02-24T02:11:15.845Z,59.97
2019-02-24T02:13:45.308Z,60.00
2019-02-24T02:16:14.830Z,60.17
2019-02-24T02:18:44.290Z,60.17
2019-02-24T02:21:13.816Z,60.40
2019-02-24T02:23:43.327Z,60.72
2019-02-24T02:26:12.833Z,60.59
2019-02-24T02:28:44.184Z,60.10
2019-02-24T02:31:13.527Z,60.40
2019-02-24T02:33:42.988Z,60.69
2019-02-24T02:36:12.506Z,60.63
2019-02-24T02:38:41.991Z,60.72
2019-02-24T02:41:11.594Z,60.72
2019-02-24T02:43:41.077Z,60.63
2019-02-24T02:46:10.583Z,60.62
2019-02-24T02:48:40.330Z,60.95
2019-02-24T02:51:09.810Z,60.97
2019-02-24T02:53:39.323Z,61.16
2019-02-24T02:56:08.806Z,60.88
2019-02-24T02:58:38.339Z,61.03
2019-02-24T03:01:07.843Z,60.98
2019-02-24T03:03:39.079Z,60.84
2019-02-24T03:06:30.283Z,61.27
2019-02-24T03:08:59.784Z,60.91
2019-02-24T03:11:29.253Z,60.48
2019-02-24T03:13:58.740Z,60.59
2019-02-24T03:16:29.050Z,60.54
2019-02-24T03:18:58.544Z,60.54
2019-02-24T03:21:28.034Z,60.63
2019-02-24T03:23:57.548Z,60.22
2019-02-24T03:26:27.069Z,60.04
2019-02-24T03:29:03.818Z,60.35
2019-02-24T03:31:27.778Z,59.75
2019-02-24T03:33:57.262Z,59.79
2019-02-24T03:36:26.770Z,60.30
2019-02-24T03:38:56.265Z,60.25
2019-02-24T03:41:25.739Z,59.81
2019-02-24T03:43:55.222Z,59.62
2019-02-24T03:46:24.703Z,59.87
2019-02-24T03:48:54.168Z,60.10
2019-02-24T03:51:23.685Z,59.98
2019-02-24T03:53:53.233Z,59.72
2019-02-24T03:56:22.790Z,59.92
2019-02-24T03:58:52.262Z,60.33
2019-02-24T04:01:21.760Z,59.60
2019-02-24T04:03:51.349Z,59.68
2019-02-24T04:06:20.822Z,59.74
2019-02-24T04:08:50.284Z,59.61
2019-02-24T04:11:19.778Z,59.47
2019-02-24T04:13:49.268Z,59.72
2019-02-24T04:16:18.741Z,59.37
2019-02-24T04:18:48.208Z,59.16
2019-02-24T04:21:17.692Z,59.15
2019-02-24T04:23:47.139Z,59.36
2019-02-24T04:26:16.600Z,59.19
2019-02-24T04:28:46.083Z,58.99
2019-02-24T04:31:15.566Z,58.92
2019-02-24T04:33:45.091Z,58.20
2019-02-24T04:36:14.552Z,58.31
2019-02-24T04:38:44.054Z,58.07
2019-02-24T04:41:13.582Z,57.92
2019-02-24T04:43:43.064Z,57.57
2019-02-24T04:46:12.562Z,57.85
2019-02-24T04:48:42.055Z,58.09
2019-02-24T04:51:11.518Z,58.40
2019-02-24T04:53:40.997Z,57.89
2019-02-24T04:56:10.501Z,57.86
2019-02-24T04:58:39.991Z,58.01
2019-02-24T05:01:09.489Z,58.06
2019-02-24T05:03:39.007Z,57.80
2019-02-24T05:06:08.502Z,57.55
2019-02-24T05:08:38.010Z,57.55
2019-02-24T05:11:07.472Z,57.97
2019-02-24T05:13:36.995Z,57.87
2019-02-24T05:16:06.512Z,57.40
2019-02-24T05:18:36.037Z,57.60
2019-02-24T05:21:05.529Z,57.86
2019-02-24T05:23:34.999Z,57.84
2019-02-24T05:26:04.532Z,58.58
2019-02-24T05:28:34.037Z,60.04
2019-02-24T05:31:03.538Z,60.79
2019-02-24T05:33:33.001Z,62.55
2019-02-24T05:36:02.512Z,63.04
2019-02-24T05:38:32.044Z,63.38
2019-02-24T05:41:01.545Z,64.18
2019-02-24T05:43:31.103Z,64.47
2019-02-24T05:46:00.565Z,64.21
2019-02-24T05:48:30.039Z,64.15
2019-02-24T05:50:59.537Z,64.14
2019-02-24T05:53:29.007Z,64.29
2019-02-24T05:55:58.495Z,64.47
2019-02-24T05:58:28.004Z,64.05
2019-02-24T06:00:57.500Z,63.79
2019-02-24T06:03:27.002Z,62.98
2019-02-24T06:05:56.460Z,62.96
2019-02-24T06:08:26.024Z,62.95
2019-02-24T06:10:55.497Z,62.63
2019-02-24T06:13:25.019Z,62.43
2019-02-24T06:15:54.516Z,62.31
2019-02-24T06:18:24.047Z,61.95
2019-02-24T06:20:53.609Z,61.64
2019-02-24T06:23:23.101Z,61.29
2019-02-24T06:25:52.592Z,61.06
2019-02-24T06:28:22.085Z,60.31
2019-02-24T06:30:51.583Z,59.86
2019-02-24T06:33:21.079Z,59.37
2019-02-24T06:35:50.583Z,59.31
2019-02-24T06:38:20.048Z,58.65
2019-02-24T06:40:49.526Z,58.25
2019-02-24T06:43:19.018Z,57.71
2019-02-24T06:45:48.481Z,57.05
2019-02-24T06:48:18.064Z,57.12
2019-02-24T06:50:54.527Z,57.47
2019-02-24T06:53:23.993Z,57.17
2019-02-24T06:55:53.481Z,56.96
2019-02-24T06:58:23.007Z,56.86
2019-02-24T07:00:52.548Z,55.84
2019-02-24T07:03:22.049Z,55.16
2019-02-24T07:05:53.874Z,54.73
2019-02-24T07:08:23.423Z,54.57
2019-02-24T07:10:53.008Z,54.92
2019-02-24T07:13:22.485Z,54.93
2019-02-24T07:15:52.011Z,53.67
2019-02-24T07:18:21.489Z,54.05
2019-02-24T07:20:50.998Z,53.21
2019-02-24T07:23:20.473Z,52.85
2019-02-24T07:25:49.984Z,52.30
2019-02-24T07:28:19.508Z,52.49
2019-02-24T07:30:49.013Z,52.12
2019-02-24T07:33:18.562Z,52.29
2019-02-24T07:35:48.048Z,51.86
2019-02-24T07:38:17.532Z,50.75
2019-02-24T07:40:47.103Z,50.90
2019-02-24T07:43:16.591Z,51.17
2019-02-24T07:45:46.090Z,50.54
2019-02-24T07:48:15.588Z,49.83
2019-02-24T07:50:45.056Z,50.55
2019-02-24T07:53:14.556Z,51.43
2019-02-24T07:55:44.066Z,50.33
2019-02-24T07:58:13.566Z,50.41
2019-02-24T08:00:43.080Z,49.43
2019-02-24T08:03:12.624Z,49.30
2019-02-24T08:05:42.147Z,48.96
2019-02-24T08:08:16.387Z,48.92
2019-02-24T08:10:42.877Z,49.42
2019-02-24T08:13:12.420Z,48.70
2019-02-24T08:15:41.953Z,48.50
2019-02-24T08:18:11.471Z,48.84
2019-02-24T08:20:41.039Z,48.92
2019-02-24T08:23:11.132Z,49.68
2019-02-24T08:25:40.694Z,48.92
2019-02-24T08:28:10.188Z,48.76
2019-02-24T08:30:41.846Z,48.84
2019-02-24T08:33:10.848Z,49.08
2019-02-24T08:35:40.406Z,48.47
2019-02-24T08:38:09.881Z,47.83
2019-02-24T08:40:39.404Z,47.21
2019-02-24T08:43:08.958Z,47.22
2019-02-24T08:45:38.482Z,47.84
2019-02-24T08:48:08.002Z,47.87
2019-02-24T08:50:37.525Z,47.45
2019-02-24T08:53:07.084Z,47.83
2019-02-24T08:55:36.609Z,47.07
2019-02-24T08:58:06.082Z,47.07
2019-02-24T09:00:35.679Z,47.59
2019-02-24T09:03:05.129Z,47.47
2019-02-24T09:05:34.612Z,46.60
2019-02-24T09:08:04.153Z,47.10
2019-02-24T09:10:33.797Z,46.65
2019-02-24T09:13:03.318Z,46.60
2019-02-24T09:15:32.818Z,47.14
2019-02-24T09:18:02.291Z,47.04
2019-02-24T09:20:31.817Z,46.77
2019-02-24T09:23:01.274Z,47.29
2019-02-24T09:25:30.745Z,47.48
2019-02-24T09:28:00.172Z,46.79
2019-02-24T09:30:29.619Z,47.50
2019-02-24T09:32:59.131Z,47.51
2019-02-24T09:35:28.618Z,47.45
2019-02-24T09:37:58.123Z,47.24
2019-02-24T09:40:27.647Z,46.06
2019-02-24T09:42:57.170Z,45.76
2019-02-24T09:45:26.693Z,45.79
2019-02-24T09:47:56.245Z,46.07
2019-02-24T09:50:25.836Z,45.92
2019-02-24T09:52:55.389Z,45.32
2019-02-24T09:55:24.950Z,45.21
2019-02-24T09:57:54.438Z,45.79
2019-02-24T10:00:23.952Z,45.43
2019-02-24T10:02:53.462Z,45.60
2019-02-24T10:05:22.948Z,44.23
2019-02-24T10:07:52.438Z,44.11
2019-02-24T10:10:21.918Z,45.19
2019-02-24T10:12:51.403Z,45.61
2019-02-24T10:15:20.905Z,44.18
2019-02-24T10:17:50.436Z,45.26
2019-02-24T10:20:19.970Z,45.29
2019-02-24T10:22:49.466Z,45.88
2019-02-24T10:25:18.967Z,45.43
2019-02-24T10:27:48.559Z,44.03
2019-02-24T10:30:18.059Z,44.48
2019-02-24T10:32:47.569Z,43.89
2019-02-24T10:35:17.039Z,42.54
2019-02-24T10:37:46.551Z,41.86
2019-02-24T10:40:16.078Z,41.91
2019-02-24T10:42:45.561Z,41.26
2019-02-24T10:45:15.197Z,41.64
2019-02-24T10:47:45.111Z,42.33
2019-02-24T10:50:14.622Z,42.43
2019-02-24T10:52:44.114Z,42.24
2019-02-24T10:55:13.804Z,42.53
2019-02-24T10:57:43.318Z,41.85
2019-02-24T11:00:13.906Z,41.12
2019-02-24T11:02:43.459Z,42.97
2019-02-24T11:05:12.950Z,41.06
2019-02-24T11:07:42.474Z,41.15
2019-02-24T11:10:12.833Z,40.87
2019-02-24T11:12:42.346Z,40.14
2019-02-24T11:15:11.889Z,41.07
2019-02-24T11:17:41.447Z,40.72
2019-02-24T11:20:13.140Z,41.11
2019-02-24T11:22:45.225Z,40.52
2019-02-24T11:25:14.541Z,40.26
2019-02-24T11:27:44.213Z,39.95
2019-02-24T11:30:33.310Z,40.17
2019-02-24T11:33:02.779Z,40.17
2019-02-24T11:35:32.487Z,40.37
2019-02-24T11:38:01.977Z,40.52
2019-02-24T11:40:31.450Z,40.27
2019-02-24T11:43:01.007Z,40.25
2019-02-24T11:45:30.490Z,39.92
2019-02-24T11:47:59.962Z,39.41
2019-02-24T11:50:29.443Z,39.74
2019-02-24T11:52:59.141Z,39.54
2019-02-24T11:55:28.549Z,39.63
2019-02-24T11:57:58.132Z,39.74
2019-02-24T12:00:27.619Z,39.89
2019-02-24T12:02:57.100Z,39.62
2019-02-24T12:05:26.545Z,39.06
2019-02-24T12:07:56.074Z,39.84
2019-02-24T12:10:25.547Z,40.06
2019-02-24T12:12:55.065Z,40.07
2019-02-24T12:15:24.630Z,40.51
2019-02-24T12:17:54.106Z,40.22
2019-02-24T12:20:23.581Z,39.73
2019-02-24T12:22:53.043Z,39.99
2019-02-24T12:25:22.563Z,39.94
2019-02-24T12:27:52.043Z,40.74
2019-02-24T12:30:21.561Z,40.83
2019-02-24T12:32:51.038Z,39.96
2019-02-24T12:35:20.515Z,39.75
2019-02-24T12:37:50.019Z,39.52
2019-02-24T12:40:19.522Z,40.16
2019-02-24T12:42:49.066Z,40.18
2019-02-24T12:45:18.534Z,40.24
2019-02-24T12:47:48.091Z,41.12
2019-02-24T12:50:17.581Z,41.99
2019-02-24T12:52:49.565Z,41.40
2019-02-24T12:55:19.015Z,41.09
2019-02-24T12:57:48.552Z,41.23
2019-02-24T13:00:19.228Z,40.95
2019-02-24T13:02:48.777Z,41.60
2019-02-24T13:05:18.279Z,43.21
2019-02-24T13:07:47.749Z,44.11
2019-02-24T13:10:17.390Z,44.93
2019-02-24T13:12:46.845Z,45.54
2019-02-24T13:15:16.349Z,46.44
2019-02-24T13:17:45.972Z,47.06
2019-02-24T13:20:15.476Z,47.33
2019-02-24T13:22:44.965Z,47.36
2019-02-24T13:25:14.567Z,46.66
2019-02-24T13:27:44.057Z,47.04
2019-02-24T13:30:13.857Z,47.59
2019-02-24T13:32:43.294Z,47.83
2019-02-24T13:35:12.835Z,47.88
2019-02-24T13:37:42.298Z,48.16
2019-02-24T13:40:11.800Z,47.94
2019-02-24T13:42:41.370Z,48.35
2019-02-24T13:45:12.833Z,48.41
2019-02-24T13:47:42.312Z,48.41
2019-02-24T13:50:15.148Z,47.77
2019-02-24T13:52:44.685Z,47.85
2019-02-24T13:55:14.309Z,48.26
2019-02-24T13:57:43.827Z,48.39
2019-02-24T14:00:15.542Z,48.42
2019-02-24T14:02:46.224Z,48.78
2019-02-24T14:05:15.775Z,49.08
2019-02-24T14:07:45.254Z,48.84
2019-02-24T14:10:14.950Z,48.91
2019-02-24T14:12:44.551Z,49.21
2019-02-24T14:15:14.142Z,49.35
2019-02-24T14:17:43.754Z,49.28
2019-02-24T14:20:13.366Z,49.25
2019-02-24T14:22:42.916Z,49.44
2019-02-24T14:25:12.461Z,49.01
2019-02-24T14:27:41.985Z,49.47
2019-02-24T14:30:12.919Z,49.53
2019-02-24T14:32:44.043Z,49.48
2019-02-24T14:35:14.295Z,48.58
2019-02-24T14:37:43.784Z,49.02
2019-02-24T14:40:13.246Z,49.36
2019-02-24T14:42:42.756Z,49.27
2019-02-24T14:45:14.309Z,49.49
2019-02-24T14:47:43.842Z,49.57
2019-02-24T14:50:13.503Z,49.84
2019-02-24T14:52:43.002Z,49.61
2019-02-24T14:55:12.534Z,49.62
2019-02-24T14:57:42.036Z,50.27
2019-02-24T15:00:13.107Z,50.08
2019-02-24T15:02:42.962Z,50.36
2019-02-24T15:05:12.591Z,50.87
2019-02-24T15:07:42.212Z,50.39
2019-02-24T15:10:13.352Z,50.47
2019-02-24T15:12:42.928Z,50.65
2019-02-24T15:15:17.292Z,50.88
2019-02-24T15:17:46.960Z,50.84
2019-02-24T15:20:18.081Z,50.61
2019-02-24T15:22:47.587Z,51.20
2019-02-24T15:25:17.586Z,51.61
2019-02-24T15:27:47.712Z,50.78
2019-02-24T15:30:20.222Z,50.90
2019-02-24T15:32:51.921Z,50.99
2019-02-24T15:35:20.923Z,51.44
2019-02-24T15:37:50.410Z,52.01
2019-02-24T15:40:19.899Z,51.74
2019-02-24T15:42:49.410Z,52.35
2019-02-24T15:45:18.887Z,52.52
2019-02-24T15:47:48.382Z,52.33
2019-02-24T15:50:17.935Z,52.45
2019-02-24T15:52:47.473Z,52.74
2019-02-24T15:55:17.017Z,52.63
2019-02-24T15:57:46.546Z,53.12
2019-02-24T16:00:16.840Z,53.02
2019-02-24T16:02:46.479Z,53.38
2019-02-24T16:05:16.051Z,53.64
2019-02-24T16:07:45.704Z,53.15
2019-02-24T16:10:16.194Z,53.29
2019-02-24T16:12:45.770Z,53.93
2019-02-24T16:15:16.024Z,54.00
2019-02-24T16:17:45.624Z,53.98
2019-02-24T16:20:17.511Z,54.00
2019-02-24T16:22:47.066Z,54.26
2019-02-24T16:25:16.612Z,54.08
2019-02-24T16:27:46.532Z,54.47
2019-02-24T16:30:16.184Z,54.46
2019-02-24T16:32:45.780Z,54.77
2019-02-24T16:35:18.831Z,54.70
2019-02-24T16:37:48.352Z,54.78
2019-02-24T16:40:18.872Z,55.31
2019-02-24T16:42:49.944Z,55.08
2019-02-24T16:45:22.663Z,55.15
2019-02-24T16:47:52.254Z,55.21
2019-02-24T16:50:25.235Z,54.93
2019-02-24T16:52:58.044Z,55.23
2019-02-24T16:55:31.944Z,55.10
2019-02-24T16:58:04.318Z,54.91
2019-02-24T17:00:38.017Z,54.84
2019-02-24T17:03:19.774Z,55.05
2019-02-24T17:05:47.906Z,55.23
2019-02-24T17:08:17.433Z,54.83
2019-02-24T17:10:48.405Z,54.73
2019-02-24T17:13:17.915Z,54.86
2019-02-24T17:15:47.435Z,54.56
2019-02-24T17:18:16.983Z,54.50
2019-02-24T17:20:46.503Z,54.35
2019-02-24T17:23:15.981Z,54.18
2019-02-24T17:25:45.568Z,54.10
2019-02-24T17:28:15.090Z,54.14
2019-02-24T17:30:44.608Z,54.13
2019-02-24T17:33:14.098Z,54.18
2019-02-24T17:35:43.689Z,53.88
2019-02-24T17:38:13.165Z,54.00
2019-02-24T17:40:43.164Z,53.83
2019-02-24T17:43:12.656Z,53.88
2019-02-24T17:45:42.120Z,53.78
2019-02-24T17:48:13.654Z,53.71
2019-02-24T17:50:42.865Z,53.68
2019-02-24T17:53:12.400Z,53.55
2019-02-24T17:55:41.887Z,53.67
2019-02-24T17:58:11.444Z,53.70
2019-02-24T18:00:47.574Z,53.72
2019-02-24T18:03:17.043Z,53.97
2019-02-24T18:05:46.566Z,54.14
2019-02-24T18:08:16.060Z,53.82
2019-02-24T18:10:45.570Z,53.91
2019-02-24T18:13:15.043Z,54.15
2019-02-24T18:15:44.608Z,54.46
2019-02-24T18:18:16.417Z,54.59
2019-02-24T18:20:46.187Z,54.60
2019-02-24T18:23:15.704Z,54.45
2019-02-24T18:25:45.305Z,54.49
2019-02-24T18:28:15.527Z,54.50
2019-02-24T18:30:45.070Z,54.49
2019-02-24T18:33:14.626Z,54.61
2019-02-24T18:35:45.464Z,54.71
2019-02-24T18:38:14.937Z,54.73
2019-02-24T18:40:44.459Z,54.61
2019-02-24T18:43:13.932Z,54.53
2019-02-24T18:45:43.527Z,54.63
2019-02-24T18:48:13.122Z,54.42
2019-02-24T18:50:42.698Z,54.38
2019-02-24T18:53:12.196Z,54.27
2019-02-24T18:55:41.727Z,54.30
2019-02-24T18:58:11.669Z,54.00
2019-02-24T19:00:41.139Z,54.30
2019-02-24T19:03:10.729Z,54.60
2019-02-24T19:05:40.535Z,53.89
2019-02-24T19:08:12.661Z,53.71
2019-02-24T19:10:42.223Z,54.01
2019-02-24T19:13:11.850Z,53.71
2019-02-24T19:15:41.294Z,53.46
2019-02-24T19:18:10.834Z,53.83
2019-02-24T19:20:40.356Z,54.69
2019-02-24T19:23:09.842Z,54.21
2019-02-24T19:25:39.429Z,54.03
2019-02-24T19:28:08.952Z,54.33
2019-02-24T19:30:38.550Z,54.60
2019-02-24T19:33:08.023Z,54.44
2019-02-24T19:35:38.639Z,54.64
2019-02-24T19:38:08.132Z,54.64
2019-02-24T19:40:37.634Z,54.94
2019-02-24T19:43:07.159Z,54.42
2019-02-24T19:45:36.620Z,54.46
2019-02-24T19:48:06.151Z,54.68
2019-02-24T19:50:35.696Z,54.49
2019-02-24T19:53:05.200Z,54.32
2019-02-24T19:55:34.729Z,54.07
2019-02-24T19:58:04.233Z,54.12
2019-02-24T20:00:33.742Z,54.30
2019-02-24T20:03:03.510Z,53.99
2019-02-24T20:05:33.032Z,53.98
2019-02-24T20:08:02.531Z,54.00
2019-02-24T20:10:32.118Z,53.92
2019-02-24T20:13:01.640Z,54.09
2019-02-24T20:15:31.122Z,54.21
2019-02-24T20:18:00.596Z,53.77
2019-02-24T20:20:30.089Z,53.51
2019-02-24T20:22:59.551Z,53.50
2019-02-24T20:25:29.089Z,53.97
2019-02-24T20:27:58.525Z,53.85
2019-02-24T20:30:28.395Z,54.00
2019-02-24T20:32:57.888Z,53.88
2019-02-24T20:35:27.400Z,53.99
2019-02-24T20:37:56.981Z,53.99
2019-02-24T20:40:26.594Z,53.95
2019-02-24T20:42:56.142Z,54.10
2019-02-24T20:45:25.749Z,54.56
2019-02-24T20:47:57.580Z,54.43
2019-02-24T20:50:27.104Z,54.20
2019-02-24T20:52:56.599Z,54.13
2019-02-24T20:55:26.093Z,53.92
2019-02-24T20:57:55.617Z,53.92
2019-02-24T21:00:31.064Z,54.10
2019-02-24T21:03:01.459Z,53.81
2019-02-24T21:05:31.321Z,53.66
2019-02-24T21:08:00.840Z,53.47
2019-02-24T21:10:30.331Z,53.46
2019-02-24T21:12:59.845Z,53.46
2019-02-24T21:15:29.366Z,53.70
2019-02-24T21:17:59.039Z,54.58
2019-02-24T21:20:29.151Z,54.59
2019-02-24T21:22:58.668Z,55.34
2019-02-24T21:25:28.213Z,55.54
2019-02-24T21:27:57.728Z,54.73
2019-02-24T21:30:27.783Z,54.76
2019-02-24T21:32:57.301Z,54.52
2019-02-24T21:35:26.805Z,54.66
2019-02-24T21:37:56.291Z,54.29
2019-02-24T21:40:26.027Z,54.68
2019-02-24T21:42:55.713Z,54.46
2019-02-24T21:45:25.311Z,55.03
2019-02-24T21:47:54.823Z,55.83
2019-02-24T21:50:24.349Z,57.10
2019-02-24T21:52:53.863Z,58.07
2019-02-24T21:55:23.443Z,58.70
2019-02-24T21:57:53.046Z,59.49
2019-02-24T22:00:23.134Z,60.34
2019-02-24T22:02:52.716Z,60.72
2019-02-24T22:05:22.220Z,61.15
2019-02-24T22:07:51.737Z,61.29
2019-02-24T22:10:21.226Z,61.37
2019-02-24T22:12:50.732Z,60.82
2019-02-24T22:15:20.253Z,60.23
2019-02-24T22:17:49.778Z,59.33
2019-02-24T22:20:19.351Z,60.12
2019-02-24T22:22:48.855Z,59.73
2019-02-24T22:25:18.437Z,59.84
2019-02-24T22:27:47.893Z,60.23
2019-02-24T22:30:17.780Z,60.42
2019-02-24T22:32:47.352Z,60.83
2019-02-24T22:35:16.929Z,61.81
2019-02-24T22:37:46.525Z,62.35
2019-02-24T22:40:17.114Z,62.49
2019-02-24T22:42:46.997Z,62.10
2019-02-24T22:45:17.303Z,62.04
2019-02-24T22:47:46.985Z,62.03
2019-02-24T22:50:16.948Z,62.23
2019-02-24T22:52:46.608Z,62.76
2019-02-24T22:55:16.431Z,63.20
2019-02-24T22:57:46.024Z,63.63
2019-02-24T23:00:30.915Z,63.71
2019-02-24T23:03:00.390Z,63.84
2019-02-24T23:05:30.005Z,63.83
2019-02-24T23:07:59.650Z,64.05
2019-02-24T23:10:29.182Z,64.18
2019-02-24T23:12:58.690Z,63.94
2019-02-24T23:15:28.211Z,63.89
2019-02-24T23:17:59.495Z,63.87
2019-02-24T23:20:29.151Z,64.05
2019-02-24T23:22:58.682Z,64.11
2019-02-24T23:25:28.163Z,63.71
2019-02-24T23:27:57.717Z,63.14
2019-02-24T23:30:27.165Z,63.11
2019-02-24T23:32:56.629Z,63.26
2019-02-24T23:35:26.125Z,63.24
2019-02-24T23:37:55.601Z,63.41
2019-02-24T23:40:25.090Z,63.42
2019-02-24T23:42:54.569Z,63.22
2019-02-24T23:45:24.054Z,63.02
2019-02-24T23:47:53.565Z,62.75
2019-02-24T23:50:23.083Z,63.39
2019-02-24T23:52:52.568Z,63.87
2019-02-24T23:55:22.122Z,64.27
2019-02-24T23:57:51.629Z,64.62
